sensor_id;sensor_type;location;lat;lon;timestamp;P1;durP1;ratioP1;P2;durP2;ratioP2
7479;SDS011;3781;42.272;22.658;2023-12-20T00:02:16;24.23;;;5.93;;
7479;SDS011;3781;42.272;22.658;2023-12-20T00:04:42;12.07;;;8.83;;
7479;SDS011;3781;42.272;22.658;2023-12-20T00:07:09;2.93;;;2.60;;
7479;SDS011;3781;42.272;22.658;2023-12-20T00:09:36;12.60;;;4.60;;
7479;SDS011;3781;42.272;22.658;2023-12-20T00:12:03;10.60;;;8.07;;
7479;SDS011;3781;42.272;22.658;2023-12-20T00:14:30;6.50;;;5.83;;
7479;SDS011;3781;42.272;22.658;2023-12-20T00:16:56;5.40;;;4.90;;
7479;SDS011;3781;42.272;22.658;2023-12-20T00:19:24;4.40;;;4.00;;
7479;SDS011;3781;42.272;22.658;2023-12-20T00:21:51;5.27;;;4.87;;
7479;SDS011;3781;42.272;22.658;2023-12-20T00:24:18;13.40;;;6.57;;
7479;SDS011;3781;42.272;22.658;2023-12-20T00:26:45;7.50;;;4.43;;
7479;SDS011;3781;42.272;22.658;2023-12-20T00:29:12;15.07;;;9.13;;
7479;SDS011;3781;42.272;22.658;2023-12-20T00:31:39;5.20;;;2.80;;
7479;SDS011;3781;42.272;22.658;2023-12-20T00:34:05;13.73;;;6.70;;
7479;SDS011;3781;42.272;22.658;2023-12-20T00:36:33;9.90;;;6.80;;
7479;SDS011;3781;42.272;22.658;2023-12-20T00:39:00;5.47;;;4.57;;
7479;SDS011;3781;42.272;22.658;2023-12-20T00:41:27;7.07;;;6.40;;
7479;SDS011;3781;42.272;22.658;2023-12-20T00:43:54;10.87;;;5.83;;
7479;SDS011;3781;42.272;22.658;2023-12-20T00:46:21;9.77;;;6.63;;
7479;SDS011;3781;42.272;22.658;2023-12-20T00:48:48;8.07;;;3.93;;
7479;SDS011;3781;42.272;22.658;2023-12-20T00:51:14;7.53;;;5.70;;
7479;SDS011;3781;42.272;22.658;2023-12-20T00:53:42;9.10;;;5.93;;
7479;SDS011;3781;42.272;22.658;2023-12-20T00:56:09;12.37;;;8.53;;
7479;SDS011;3781;42.272;22.658;2023-12-20T00:58:36;4.53;;;3.47;;
7479;SDS011;3781;42.272;22.658;2023-12-20T01:01:03;16.93;;;7.27;;
7479;SDS011;3781;42.272;22.658;2023-12-20T01:03:29;8.00;;;3.57;;
7479;SDS011;3781;42.272;22.658;2023-12-20T01:05:55;11.37;;;5.37;;
7479;SDS011;3781;42.272;22.658;2023-12-20T01:08:22;10.17;;;5.20;;
7479;SDS011;3781;42.272;22.658;2023-12-20T01:10:51;44.57;;;8.77;;
7479;SDS011;3781;42.272;22.658;2023-12-20T01:13:18;14.13;;;7.10;;
7479;SDS011;3781;42.272;22.658;2023-12-20T01:15:45;13.77;;;6.47;;
7479;SDS011;3781;42.272;22.658;2023-12-20T01:18:12;5.03;;;4.53;;
7479;SDS011;3781;42.272;22.658;2023-12-20T01:20:39;17.43;;;7.07;;
7479;SDS011;3781;42.272;22.658;2023-12-20T01:23:06;12.07;;;7.57;;
7479;SDS011;3781;42.272;22.658;2023-12-20T01:25:33;7.87;;;7.27;;
7479;SDS011;3781;42.272;22.658;2023-12-20T01:28:01;12.80;;;6.50;;
7479;SDS011;3781;42.272;22.658;2023-12-20T01:30:28;35.97;;;5.63;;
7479;SDS011;3781;42.272;22.658;2023-12-20T01:32:55;11.27;;;9.57;;
7479;SDS011;3781;42.272;22.658;2023-12-20T01:35:21;19.40;;;8.23;;
7479;SDS011;3781;42.272;22.658;2023-12-20T01:37:48;5.27;;;4.87;;
7479;SDS011;3781;42.272;22.658;2023-12-20T01:40:15;3.27;;;3.00;;
7479;SDS011;3781;42.272;22.658;2023-12-20T01:42:42;22.07;;;7.53;;
7479;SDS011;3781;42.272;22.658;2023-12-20T01:45:10;7.87;;;7.10;;
7479;SDS011;3781;42.272;22.658;2023-12-20T01:47:37;6.83;;;5.70;;
7479;SDS011;3781;42.272;22.658;2023-12-20T01:50:04;16.03;;;7.73;;
7479;SDS011;3781;42.272;22.658;2023-12-20T01:52:33;10.30;;;4.80;;
7479;SDS011;3781;42.272;22.658;2023-12-20T01:55:01;2.67;;;2.53;;
7479;SDS011;3781;42.272;22.658;2023-12-20T01:57:29;3.77;;;3.47;;
7479;SDS011;3781;42.272;22.658;2023-12-20T01:59:57;15.07;;;5.50;;
7479;SDS011;3781;42.272;22.658;2023-12-20T02:02:25;8.20;;;5.70;;
7479;SDS011;3781;42.272;22.658;2023-12-20T02:04:54;11.57;;;7.33;;
7479;SDS011;3781;42.272;22.658;2023-12-20T02:07:21;8.40;;;5.00;;
7479;SDS011;3781;42.272;22.658;2023-12-20T02:09:48;12.27;;;6.07;;
7479;SDS011;3781;42.272;22.658;2023-12-20T02:12:16;6.53;;;4.30;;
7479;SDS011;3781;42.272;22.658;2023-12-20T02:14:43;23.03;;;8.97;;
7479;SDS011;3781;42.272;22.658;2023-12-20T02:17:09;13.83;;;6.23;;
7479;SDS011;3781;42.272;22.658;2023-12-20T02:19:38;13.13;;;4.57;;
7479;SDS011;3781;42.272;22.658;2023-12-20T02:22:07;9.30;;;5.03;;
7479;SDS011;3781;42.272;22.658;2023-12-20T02:24:33;5.70;;;4.53;;
7479;SDS011;3781;42.272;22.658;2023-12-20T02:27:00;7.80;;;4.50;;
7479;SDS011;3781;42.272;22.658;2023-12-20T02:29:27;1.93;;;1.87;;
7479;SDS011;3781;42.272;22.658;2023-12-20T02:31:53;11.57;;;6.23;;
7479;SDS011;3781;42.272;22.658;2023-12-20T02:34:20;10.83;;;2.33;;
7479;SDS011;3781;42.272;22.658;2023-12-20T02:36:47;10.83;;;2.50;;
7479;SDS011;3781;42.272;22.658;2023-12-20T02:39:15;6.57;;;4.40;;
7479;SDS011;3781;42.272;22.658;2023-12-20T02:41:42;6.97;;;3.40;;
7479;SDS011;3781;42.272;22.658;2023-12-20T02:44:09;1.83;;;1.73;;
7479;SDS011;3781;42.272;22.658;2023-12-20T02:46:35;14.30;;;4.67;;
7479;SDS011;3781;42.272;22.658;2023-12-20T02:49:02;2.33;;;2.23;;
7479;SDS011;3781;42.272;22.658;2023-12-20T02:51:29;6.20;;;5.47;;
7479;SDS011;3781;42.272;22.658;2023-12-20T02:53:56;3.37;;;3.10;;
7479;SDS011;3781;42.272;22.658;2023-12-20T02:56:24;7.90;;;3.80;;
7479;SDS011;3781;42.272;22.658;2023-12-20T02:58:50;2.30;;;1.33;;
7479;SDS011;3781;42.272;22.658;2023-12-20T03:01:17;3.93;;;3.30;;
7479;SDS011;3781;42.272;22.658;2023-12-20T03:03:44;3.77;;;3.03;;
7479;SDS011;3781;42.272;22.658;2023-12-20T03:06:11;4.83;;;4.30;;
7479;SDS011;3781;42.272;22.658;2023-12-20T03:08:43;3.60;;;3.30;;
7479;SDS011;3781;42.272;22.658;2023-12-20T03:11:10;4.17;;;3.80;;
7479;SDS011;3781;42.272;22.658;2023-12-20T03:13:38;3.93;;;3.57;;
7479;SDS011;3781;42.272;22.658;2023-12-20T03:16:07;2.67;;;2.57;;
7479;SDS011;3781;42.272;22.658;2023-12-20T03:18:35;3.40;;;3.10;;
7479;SDS011;3781;42.272;22.658;2023-12-20T03:21:02;2.97;;;2.83;;
7479;SDS011;3781;42.272;22.658;2023-12-20T03:23:29;0.80;;;0.80;;
7479;SDS011;3781;42.272;22.658;2023-12-20T03:25:57;5.63;;;2.60;;
7479;SDS011;3781;42.272;22.658;2023-12-20T03:28:24;32.43;;;9.20;;
7479;SDS011;3781;42.272;22.658;2023-12-20T03:30:52;8.13;;;2.87;;
7479;SDS011;3781;42.272;22.658;2023-12-20T03:33:19;5.47;;;5.07;;
7479;SDS011;3781;42.272;22.658;2023-12-20T03:35:46;6.93;;;5.37;;
7479;SDS011;3781;42.272;22.658;2023-12-20T03:38:13;2.33;;;2.23;;
7479;SDS011;3781;42.272;22.658;2023-12-20T03:40:39;10.50;;;6.17;;
7479;SDS011;3781;42.272;22.658;2023-12-20T03:43:06;2.40;;;2.03;;
7479;SDS011;3781;42.272;22.658;2023-12-20T03:45:33;5.83;;;3.60;;
7479;SDS011;3781;42.272;22.658;2023-12-20T03:48:01;7.97;;;4.40;;
7479;SDS011;3781;42.272;22.658;2023-12-20T03:50:28;4.57;;;3.70;;
7479;SDS011;3781;42.272;22.658;2023-12-20T03:52:55;8.77;;;4.67;;
7479;SDS011;3781;42.272;22.658;2023-12-20T03:55:22;9.97;;;6.27;;
7479;SDS011;3781;42.272;22.658;2023-12-20T03:57:49;1.57;;;1.57;;
7479;SDS011;3781;42.272;22.658;2023-12-20T04:00:15;7.80;;;4.90;;
7479;SDS011;3781;42.272;22.658;2023-12-20T04:02:42;6.17;;;3.20;;
7479;SDS011;3781;42.272;22.658;2023-12-20T04:05:11;35.10;;;7.20;;
7479;SDS011;3781;42.272;22.658;2023-12-20T04:07:38;12.60;;;5.13;;
7479;SDS011;3781;42.272;22.658;2023-12-20T04:10:05;3.00;;;2.90;;
7479;SDS011;3781;42.272;22.658;2023-12-20T04:12:32;14.90;;;5.30;;
7479;SDS011;3781;42.272;22.658;2023-12-20T04:14:59;0.77;;;0.77;;
7479;SDS011;3781;42.272;22.658;2023-12-20T04:17:26;1.63;;;1.47;;
7479;SDS011;3781;42.272;22.658;2023-12-20T04:19:52;3.00;;;1.60;;
7479;SDS011;3781;42.272;22.658;2023-12-20T04:22:20;2.10;;;2.00;;
7479;SDS011;3781;42.272;22.658;2023-12-20T04:24:47;6.20;;;2.27;;
7479;SDS011;3781;42.272;22.658;2023-12-20T04:27:14;9.87;;;6.77;;
7479;SDS011;3781;42.272;22.658;2023-12-20T04:29:41;4.53;;;2.73;;
7479;SDS011;3781;42.272;22.658;2023-12-20T04:32:08;4.07;;;2.97;;
7479;SDS011;3781;42.272;22.658;2023-12-20T04:34:35;5.17;;;4.70;;
7479;SDS011;3781;42.272;22.658;2023-12-20T04:37:02;8.70;;;4.93;;
7479;SDS011;3781;42.272;22.658;2023-12-20T04:39:31;4.60;;;3.53;;
7479;SDS011;3781;42.272;22.658;2023-12-20T04:41:58;5.23;;;3.87;;
7479;SDS011;3781;42.272;22.658;2023-12-20T04:44:25;3.20;;;2.10;;
7479;SDS011;3781;42.272;22.658;2023-12-20T04:46:51;4.00;;;2.30;;
7479;SDS011;3781;42.272;22.658;2023-12-20T04:49:18;13.17;;;4.73;;
7479;SDS011;3781;42.272;22.658;2023-12-20T04:51:45;3.87;;;3.60;;
7479;SDS011;3781;42.272;22.658;2023-12-20T04:54:12;8.33;;;4.67;;
7479;SDS011;3781;42.272;22.658;2023-12-20T04:56:40;5.80;;;3.53;;
7479;SDS011;3781;42.272;22.658;2023-12-20T04:59:07;2.57;;;2.37;;
7479;SDS011;3781;42.272;22.658;2023-12-20T05:01:34;4.90;;;4.60;;
7479;SDS011;3781;42.272;22.658;2023-12-20T05:04:01;4.03;;;3.40;;
7479;SDS011;3781;42.272;22.658;2023-12-20T05:06:28;1.70;;;1.37;;
7479;SDS011;3781;42.272;22.658;2023-12-20T05:08:54;3.80;;;3.50;;
7479;SDS011;3781;42.272;22.658;2023-12-20T05:11:21;4.13;;;3.77;;
7479;SDS011;3781;42.272;22.658;2023-12-20T05:13:49;4.10;;;2.30;;
7479;SDS011;3781;42.272;22.658;2023-12-20T05:16:16;5.70;;;3.83;;
7479;SDS011;3781;42.272;22.658;2023-12-20T05:18:44;1.37;;;1.33;;
7479;SDS011;3781;42.272;22.658;2023-12-20T05:21:11;19.70;;;3.97;;
7479;SDS011;3781;42.272;22.658;2023-12-20T05:23:38;2.07;;;1.97;;
7479;SDS011;3781;42.272;22.658;2023-12-20T05:26:05;24.60;;;5.20;;
7479;SDS011;3781;42.272;22.658;2023-12-20T05:28:31;11.10;;;5.43;;
7479;SDS011;3781;42.272;22.658;2023-12-20T05:30:59;6.07;;;5.07;;
7479;SDS011;3781;42.272;22.658;2023-12-20T05:33:26;9.20;;;5.47;;
7479;SDS011;3781;42.272;22.658;2023-12-20T05:35:53;13.40;;;4.57;;
7479;SDS011;3781;42.272;22.658;2023-12-20T05:38:20;8.23;;;4.20;;
7479;SDS011;3781;42.272;22.658;2023-12-20T05:40:47;4.83;;;4.10;;
7479;SDS011;3781;42.272;22.658;2023-12-20T05:43:13;27.53;;;7.47;;
7479;SDS011;3781;42.272;22.658;2023-12-20T05:45:40;5.20;;;3.67;;
7479;SDS011;3781;42.272;22.658;2023-12-20T05:48:08;5.20;;;4.77;;
7479;SDS011;3781;42.272;22.658;2023-12-20T05:50:35;6.13;;;4.27;;
7479;SDS011;3781;42.272;22.658;2023-12-20T05:53:02;4.30;;;3.00;;
7479;SDS011;3781;42.272;22.658;2023-12-20T05:55:29;5.00;;;2.73;;
7479;SDS011;3781;42.272;22.658;2023-12-20T05:57:56;10.87;;;3.27;;
7479;SDS011;3781;42.272;22.658;2023-12-20T06:00:22;20.87;;;4.00;;
7479;SDS011;3781;42.272;22.658;2023-12-20T06:02:50;1.60;;;1.50;;
7479;SDS011;3781;42.272;22.658;2023-12-20T06:05:18;2.43;;;2.23;;
7479;SDS011;3781;42.272;22.658;2023-12-20T06:07:45;2.70;;;2.47;;
7479;SDS011;3781;42.272;22.658;2023-12-20T06:10:13;13.47;;;6.70;;
7479;SDS011;3781;42.272;22.658;2023-12-20T06:12:40;3.07;;;2.60;;
7479;SDS011;3781;42.272;22.658;2023-12-20T06:15:07;2.50;;;2.30;;
7479;SDS011;3781;42.272;22.658;2023-12-20T06:17:34;6.20;;;4.47;;
7479;SDS011;3781;42.272;22.658;2023-12-20T06:20:01;7.90;;;4.57;;
7479;SDS011;3781;42.272;22.658;2023-12-20T06:22:34;7.03;;;4.37;;
7479;SDS011;3781;42.272;22.658;2023-12-20T06:25:00;4.37;;;3.60;;
7479;SDS011;3781;42.272;22.658;2023-12-20T06:27:28;1.30;;;1.30;;
7479;SDS011;3781;42.272;22.658;2023-12-20T06:29:54;17.17;;;4.47;;
7479;SDS011;3781;42.272;22.658;2023-12-20T06:32:21;11.47;;;6.70;;
7479;SDS011;3781;42.272;22.658;2023-12-20T06:34:49;1.93;;;1.73;;
7479;SDS011;3781;42.272;22.658;2023-12-20T06:37:16;14.63;;;3.40;;
7479;SDS011;3781;42.272;22.658;2023-12-20T06:39:44;9.53;;;7.40;;
7479;SDS011;3781;42.272;22.658;2023-12-20T06:42:11;2.63;;;2.43;;
7479;SDS011;3781;42.272;22.658;2023-12-20T06:44:39;6.80;;;3.10;;
7479;SDS011;3781;42.272;22.658;2023-12-20T06:47:06;9.10;;;7.00;;
7479;SDS011;3781;42.272;22.658;2023-12-20T06:49:33;19.83;;;4.43;;
7479;SDS011;3781;42.272;22.658;2023-12-20T06:51:59;4.63;;;3.37;;
7479;SDS011;3781;42.272;22.658;2023-12-20T06:54:26;23.20;;;13.87;;
7479;SDS011;3781;42.272;22.658;2023-12-20T06:56:54;4.27;;;3.90;;
7479;SDS011;3781;42.272;22.658;2023-12-20T06:59:21;13.17;;;6.73;;
7479;SDS011;3781;42.272;22.658;2023-12-20T07:01:48;4.40;;;3.43;;
7479;SDS011;3781;42.272;22.658;2023-12-20T07:04:15;27.93;;;8.53;;
7479;SDS011;3781;42.272;22.658;2023-12-20T07:06:45;6.77;;;6.27;;
7479;SDS011;3781;42.272;22.658;2023-12-20T07:09:12;10.93;;;8.47;;
7479;SDS011;3781;42.272;22.658;2023-12-20T07:11:39;14.77;;;4.20;;
7479;SDS011;3781;42.272;22.658;2023-12-20T07:14:08;13.97;;;6.53;;
7479;SDS011;3781;42.272;22.658;2023-12-20T07:16:34;8.83;;;6.13;;
7479;SDS011;3781;42.272;22.658;2023-12-20T07:19:01;9.23;;;4.17;;
7479;SDS011;3781;42.272;22.658;2023-12-20T07:21:28;21.17;;;8.10;;
7479;SDS011;3781;42.272;22.658;2023-12-20T07:23:55;10.40;;;5.53;;
7479;SDS011;3781;42.272;22.658;2023-12-20T07:26:21;8.60;;;5.63;;
7479;SDS011;3781;42.272;22.658;2023-12-20T07:28:48;5.80;;;5.00;;
7479;SDS011;3781;42.272;22.658;2023-12-20T07:31:16;12.40;;;7.03;;
7479;SDS011;3781;42.272;22.658;2023-12-20T07:33:43;11.90;;;4.63;;
7479;SDS011;3781;42.272;22.658;2023-12-20T07:36:10;10.67;;;4.27;;
7479;SDS011;3781;42.272;22.658;2023-12-20T07:38:37;9.03;;;6.63;;
7479;SDS011;3781;42.272;22.658;2023-12-20T07:41:04;16.73;;;6.27;;
7479;SDS011;3781;42.272;22.658;2023-12-20T07:43:31;12.17;;;5.87;;
7479;SDS011;3781;42.272;22.658;2023-12-20T07:46:03;11.40;;;6.57;;
7479;SDS011;3781;42.272;22.658;2023-12-20T07:48:32;13.47;;;5.63;;
7479;SDS011;3781;42.272;22.658;2023-12-20T07:50:59;18.37;;;5.17;;
7479;SDS011;3781;42.272;22.658;2023-12-20T07:53:25;13.50;;;6.47;;
7479;SDS011;3781;42.272;22.658;2023-12-20T07:55:52;12.07;;;4.60;;
7479;SDS011;3781;42.272;22.658;2023-12-20T07:58:19;11.07;;;6.60;;
7479;SDS011;3781;42.272;22.658;2023-12-20T08:00:47;21.27;;;5.30;;
7479;SDS011;3781;42.272;22.658;2023-12-20T08:03:13;13.17;;;7.30;;
7479;SDS011;3781;42.272;22.658;2023-12-20T08:05:42;8.60;;;7.80;;
7479;SDS011;3781;42.272;22.658;2023-12-20T08:08:09;10.83;;;5.37;;
7479;SDS011;3781;42.272;22.658;2023-12-20T08:10:36;15.87;;;6.63;;
7479;SDS011;3781;42.272;22.658;2023-12-20T08:13:05;19.00;;;6.03;;
7479;SDS011;3781;42.272;22.658;2023-12-20T08:15:33;22.20;;;8.07;;
7479;SDS011;3781;42.272;22.658;2023-12-20T08:18:00;18.77;;;9.23;;
7479;SDS011;3781;42.272;22.658;2023-12-20T08:20:27;14.10;;;8.03;;
7479;SDS011;3781;42.272;22.658;2023-12-20T08:22:55;33.80;;;8.63;;
7479;SDS011;3781;42.272;22.658;2023-12-20T08:25:21;13.83;;;9.63;;
7479;SDS011;3781;42.272;22.658;2023-12-20T08:27:48;8.70;;;7.87;;
7479;SDS011;3781;42.272;22.658;2023-12-20T08:30:15;21.83;;;8.67;;
7479;SDS011;3781;42.272;22.658;2023-12-20T08:32:45;13.90;;;9.10;;
7479;SDS011;3781;42.272;22.658;2023-12-20T08:35:12;23.93;;;10.40;;
7479;SDS011;3781;42.272;22.658;2023-12-20T08:37:39;14.20;;;8.30;;
7479;SDS011;3781;42.272;22.658;2023-12-20T08:40:08;21.20;;;8.47;;
7479;SDS011;3781;42.272;22.658;2023-12-20T08:42:35;11.20;;;8.57;;
7479;SDS011;3781;42.272;22.658;2023-12-20T08:45:02;17.50;;;9.57;;
7479;SDS011;3781;42.272;22.658;2023-12-20T08:47:29;33.17;;;11.03;;
7479;SDS011;3781;42.272;22.658;2023-12-20T08:49:56;24.77;;;11.30;;
7479;SDS011;3781;42.272;22.658;2023-12-20T08:52:25;22.90;;;11.77;;
7479;SDS011;3781;42.272;22.658;2023-12-20T08:54:52;25.07;;;10.63;;
7479;SDS011;3781;42.272;22.658;2023-12-20T08:57:21;39.03;;;15.23;;
7479;SDS011;3781;42.272;22.658;2023-12-20T08:59:48;37.93;;;10.93;;
7479;SDS011;3781;42.272;22.658;2023-12-20T09:02:15;24.70;;;10.77;;
7479;SDS011;3781;42.272;22.658;2023-12-20T09:04:42;33.17;;;11.90;;
7479;SDS011;3781;42.272;22.658;2023-12-20T09:07:20;22.87;;;11.77;;
7479;SDS011;3781;42.272;22.658;2023-12-20T09:09:47;15.07;;;9.20;;
7479;SDS011;3781;42.272;22.658;2023-12-20T09:12:14;33.77;;;12.47;;
7479;SDS011;3781;42.272;22.658;2023-12-20T09:14:42;22.43;;;10.90;;
7479;SDS011;3781;42.272;22.658;2023-12-20T09:17:09;20.97;;;10.27;;
7479;SDS011;3781;42.272;22.658;2023-12-20T09:19:37;35.10;;;11.13;;
7479;SDS011;3781;42.272;22.658;2023-12-20T09:22:04;27.40;;;11.37;;
7479;SDS011;3781;42.272;22.658;2023-12-20T09:24:31;25.70;;;10.13;;
7479;SDS011;3781;42.272;22.658;2023-12-20T09:26:58;26.10;;;12.47;;
7479;SDS011;3781;42.272;22.658;2023-12-20T09:29:24;27.10;;;8.77;;
7479;SDS011;3781;42.272;22.658;2023-12-20T09:31:52;13.83;;;8.37;;
7479;SDS011;3781;42.272;22.658;2023-12-20T09:34:19;20.33;;;10.73;;
7479;SDS011;3781;42.272;22.658;2023-12-20T09:36:47;23.87;;;9.17;;
7479;SDS011;3781;42.272;22.658;2023-12-20T09:39:13;28.87;;;16.63;;
7479;SDS011;3781;42.272;22.658;2023-12-20T09:41:42;21.80;;;9.40;;
7479;SDS011;3781;42.272;22.658;2023-12-20T09:44:13;29.50;;;9.90;;
7479;SDS011;3781;42.272;22.658;2023-12-20T09:46:43;18.10;;;11.03;;
7479;SDS011;3781;42.272;22.658;2023-12-20T09:49:12;10.30;;;8.17;;
7479;SDS011;3781;42.272;22.658;2023-12-20T09:51:40;33.07;;;11.83;;
7479;SDS011;3781;42.272;22.658;2023-12-20T09:54:08;24.33;;;10.77;;
7479;SDS011;3781;42.272;22.658;2023-12-20T09:56:36;30.63;;;13.00;;
7479;SDS011;3781;42.272;22.658;2023-12-20T09:59:03;17.43;;;11.00;;
7479;SDS011;3781;42.272;22.658;2023-12-20T10:01:30;49.80;;;13.13;;
7479;SDS011;3781;42.272;22.658;2023-12-20T10:03:58;27.43;;;13.10;;
7479;SDS011;3781;42.272;22.658;2023-12-20T10:06:28;26.10;;;13.13;;
7479;SDS011;3781;42.272;22.658;2023-12-20T10:08:55;38.27;;;14.67;;
7479;SDS011;3781;42.272;22.658;2023-12-20T10:11:22;33.77;;;13.50;;
7479;SDS011;3781;42.272;22.658;2023-12-20T10:13:49;29.33;;;13.33;;
7479;SDS011;3781;42.272;22.658;2023-12-20T10:16:15;28.77;;;11.73;;
7479;SDS011;3781;42.272;22.658;2023-12-20T10:18:42;37.50;;;14.43;;
7479;SDS011;3781;42.272;22.658;2023-12-20T10:21:09;26.77;;;10.43;;
7479;SDS011;3781;42.272;22.658;2023-12-20T10:23:38;26.70;;;13.03;;
7479;SDS011;3781;42.272;22.658;2023-12-20T10:26:05;29.97;;;13.43;;
7479;SDS011;3781;42.272;22.658;2023-12-20T10:28:33;45.13;;;15.73;;
7479;SDS011;3781;42.272;22.658;2023-12-20T10:31:00;36.53;;;12.87;;
7479;SDS011;3781;42.272;22.658;2023-12-20T10:33:27;26.97;;;11.17;;
7479;SDS011;3781;42.272;22.658;2023-12-20T10:35:55;35.80;;;15.50;;
7479;SDS011;3781;42.272;22.658;2023-12-20T10:38:22;22.77;;;10.17;;
7479;SDS011;3781;42.272;22.658;2023-12-20T10:40:50;37.70;;;16.60;;
7479;SDS011;3781;42.272;22.658;2023-12-20T10:43:20;29.93;;;14.80;;
7479;SDS011;3781;42.272;22.658;2023-12-20T10:45:48;51.53;;;20.50;;
7479;SDS011;3781;42.272;22.658;2023-12-20T10:48:14;40.43;;;16.80;;
7479;SDS011;3781;42.272;22.658;2023-12-20T10:50:42;36.90;;;15.50;;
7479;SDS011;3781;42.272;22.658;2023-12-20T10:53:10;31.17;;;14.53;;
7479;SDS011;3781;42.272;22.658;2023-12-20T10:55:39;34.73;;;13.90;;
7479;SDS011;3781;42.272;22.658;2023-12-20T10:58:09;42.07;;;15.23;;
7479;SDS011;3781;42.272;22.658;2023-12-20T11:00:36;34.80;;;15.03;;
7479;SDS011;3781;42.272;22.658;2023-12-20T11:03:05;59.00;;;20.57;;
7479;SDS011;3781;42.272;22.658;2023-12-20T11:05:37;47.60;;;18.67;;
7479;SDS011;3781;42.272;22.658;2023-12-20T11:08:10;36.60;;;20.60;;
7479;SDS011;3781;42.272;22.658;2023-12-20T11:10:42;36.47;;;15.73;;
7479;SDS011;3781;42.272;22.658;2023-12-20T11:13:20;40.57;;;17.23;;
7479;SDS011;3781;42.272;22.658;2023-12-20T11:15:49;39.87;;;17.53;;
7479;SDS011;3781;42.272;22.658;2023-12-20T11:18:16;22.53;;;14.17;;
7479;SDS011;3781;42.272;22.658;2023-12-20T11:20:43;34.20;;;14.10;;
7479;SDS011;3781;42.272;22.658;2023-12-20T11:23:11;23.97;;;13.17;;
7479;SDS011;3781;42.272;22.658;2023-12-20T11:25:47;28.47;;;16.67;;
7479;SDS011;3781;42.272;22.658;2023-12-20T11:28:15;32.03;;;17.70;;
7479;SDS011;3781;42.272;22.658;2023-12-20T11:30:47;30.27;;;14.60;;
7479;SDS011;3781;42.272;22.658;2023-12-20T11:33:16;39.60;;;14.93;;
7479;SDS011;3781;42.272;22.658;2023-12-20T11:35:47;33.73;;;15.90;;
7479;SDS011;3781;42.272;22.658;2023-12-20T11:38:14;46.90;;;16.80;;
7479;SDS011;3781;42.272;22.658;2023-12-20T11:40:41;40.60;;;17.10;;
7479;SDS011;3781;42.272;22.658;2023-12-20T11:43:08;62.03;;;16.17;;
7479;SDS011;3781;42.272;22.658;2023-12-20T11:45:35;39.10;;;15.50;;
7479;SDS011;3781;42.272;22.658;2023-12-20T11:48:04;31.90;;;15.80;;
7479;SDS011;3781;42.272;22.658;2023-12-20T11:50:34;36.43;;;15.03;;
7479;SDS011;3781;42.272;22.658;2023-12-20T11:53:03;41.40;;;15.97;;
7479;SDS011;3781;42.272;22.658;2023-12-20T11:55:31;39.17;;;17.20;;
7479;SDS011;3781;42.272;22.658;2023-12-20T11:57:57;34.27;;;15.20;;
7479;SDS011;3781;42.272;22.658;2023-12-20T12:00:25;42.73;;;14.70;;
7479;SDS011;3781;42.272;22.658;2023-12-20T12:02:55;36.77;;;14.53;;
7479;SDS011;3781;42.272;22.658;2023-12-20T12:05:26;55.63;;;16.30;;
7479;SDS011;3781;42.272;22.658;2023-12-20T12:07:53;46.47;;;18.47;;
7479;SDS011;3781;42.272;22.658;2023-12-20T12:10:20;42.80;;;16.20;;
7479;SDS011;3781;42.272;22.658;2023-12-20T12:12:47;55.30;;;18.17;;
7479;SDS011;3781;42.272;22.658;2023-12-20T12:15:14;44.47;;;18.57;;
7479;SDS011;3781;42.272;22.658;2023-12-20T12:17:41;43.13;;;14.40;;
7479;SDS011;3781;42.272;22.658;2023-12-20T12:20:08;33.07;;;15.93;;
7479;SDS011;3781;42.272;22.658;2023-12-20T12:22:39;54.83;;;14.83;;
7479;SDS011;3781;42.272;22.658;2023-12-20T12:25:09;40.97;;;15.67;;
7479;SDS011;3781;42.272;22.658;2023-12-20T12:27:37;32.80;;;14.47;;
7479;SDS011;3781;42.272;22.658;2023-12-20T12:30:06;37.33;;;15.67;;
7479;SDS011;3781;42.272;22.658;2023-12-20T12:32:35;38.70;;;18.40;;
7479;SDS011;3781;42.272;22.658;2023-12-20T12:35:02;35.87;;;16.67;;
7479;SDS011;3781;42.272;22.658;2023-12-20T12:37:31;52.00;;;19.53;;
7479;SDS011;3781;42.272;22.658;2023-12-20T12:40:03;26.40;;;15.20;;
7479;SDS011;3781;42.272;22.658;2023-12-20T12:42:30;34.43;;;19.20;;
7479;SDS011;3781;42.272;22.658;2023-12-20T12:44:57;29.83;;;18.67;;
7479;SDS011;3781;42.272;22.658;2023-12-20T12:47:25;45.53;;;15.67;;
7479;SDS011;3781;42.272;22.658;2023-12-20T12:49:51;46.60;;;14.43;;
7479;SDS011;3781;42.272;22.658;2023-12-20T12:52:21;40.50;;;16.47;;
7479;SDS011;3781;42.272;22.658;2023-12-20T12:54:49;36.73;;;16.70;;
7479;SDS011;3781;42.272;22.658;2023-12-20T12:57:18;27.47;;;14.53;;
7479;SDS011;3781;42.272;22.658;2023-12-20T12:59:45;40.27;;;15.00;;
7479;SDS011;3781;42.272;22.658;2023-12-20T13:02:13;48.30;;;18.83;;
7479;SDS011;3781;42.272;22.658;2023-12-20T13:04:40;42.07;;;17.53;;
7479;SDS011;3781;42.272;22.658;2023-12-20T13:07:07;31.63;;;17.33;;
7479;SDS011;3781;42.272;22.658;2023-12-20T13:09:36;26.57;;;14.70;;
7479;SDS011;3781;42.272;22.658;2023-12-20T13:12:04;30.73;;;16.70;;
7479;SDS011;3781;42.272;22.658;2023-12-20T13:14:33;41.20;;;14.70;;
7479;SDS011;3781;42.272;22.658;2023-12-20T13:17:02;48.13;;;21.77;;
7479;SDS011;3781;42.272;22.658;2023-12-20T13:19:29;38.63;;;16.43;;
7479;SDS011;3781;42.272;22.658;2023-12-20T13:21:56;40.40;;;18.33;;
7479;SDS011;3781;42.272;22.658;2023-12-20T13:24:24;17.77;;;11.97;;
7479;SDS011;3781;42.272;22.658;2023-12-20T13:26:51;34.67;;;13.77;;
7479;SDS011;3781;42.272;22.658;2023-12-20T13:29:17;37.90;;;17.47;;
7479;SDS011;3781;42.272;22.658;2023-12-20T13:31:46;29.90;;;15.37;;
7479;SDS011;3781;42.272;22.658;2023-12-20T13:34:12;34.53;;;16.53;;
7479;SDS011;3781;42.272;22.658;2023-12-20T13:36:40;30.30;;;14.27;;
7479;SDS011;3781;42.272;22.658;2023-12-20T13:39:07;34.77;;;16.70;;
7479;SDS011;3781;42.272;22.658;2023-12-20T13:41:34;45.50;;;16.47;;
7479;SDS011;3781;42.272;22.658;2023-12-20T13:44:00;43.07;;;16.13;;
7479;SDS011;3781;42.272;22.658;2023-12-20T13:46:28;34.17;;;14.73;;
7479;SDS011;3781;42.272;22.658;2023-12-20T13:48:57;31.67;;;16.87;;
7479;SDS011;3781;42.272;22.658;2023-12-20T13:51:23;23.90;;;14.77;;
7479;SDS011;3781;42.272;22.658;2023-12-20T13:53:50;39.00;;;17.90;;
7479;SDS011;3781;42.272;22.658;2023-12-20T13:56:17;27.50;;;14.13;;
7479;SDS011;3781;42.272;22.658;2023-12-20T13:58:45;45.73;;;13.77;;
7479;SDS011;3781;42.272;22.658;2023-12-20T14:01:12;34.03;;;15.07;;
7479;SDS011;3781;42.272;22.658;2023-12-20T14:03:39;36.00;;;12.07;;
7479;SDS011;3781;42.272;22.658;2023-12-20T14:06:08;23.80;;;14.67;;
7479;SDS011;3781;42.272;22.658;2023-12-20T14:08:35;34.90;;;16.17;;
7479;SDS011;3781;42.272;22.658;2023-12-20T14:11:04;34.93;;;17.20;;
7479;SDS011;3781;42.272;22.658;2023-12-20T14:13:31;25.93;;;17.43;;
7479;SDS011;3781;42.272;22.658;2023-12-20T14:15:58;38.27;;;14.80;;
7479;SDS011;3781;42.272;22.658;2023-12-20T14:18:26;37.30;;;19.20;;
7479;SDS011;3781;42.272;22.658;2023-12-20T14:20:53;44.33;;;14.50;;
7479;SDS011;3781;42.272;22.658;2023-12-20T14:23:21;35.53;;;13.17;;
7479;SDS011;3781;42.272;22.658;2023-12-20T14:25:48;36.17;;;13.87;;
7479;SDS011;3781;42.272;22.658;2023-12-20T14:28:15;28.97;;;14.57;;
7479;SDS011;3781;42.272;22.658;2023-12-20T14:30:42;55.13;;;13.47;;
7479;SDS011;3781;42.272;22.658;2023-12-20T14:33:09;26.10;;;13.50;;
7479;SDS011;3781;42.272;22.658;2023-12-20T14:35:36;27.40;;;14.17;;
7479;SDS011;3781;42.272;22.658;2023-12-20T14:38:03;14.53;;;9.20;;
7479;SDS011;3781;42.272;22.658;2023-12-20T14:40:31;25.87;;;14.60;;
7479;SDS011;3781;42.272;22.658;2023-12-20T14:42:58;34.80;;;13.73;;
7479;SDS011;3781;42.272;22.658;2023-12-20T14:45:25;33.70;;;17.13;;
7479;SDS011;3781;42.272;22.658;2023-12-20T14:47:52;18.63;;;10.90;;
7479;SDS011;3781;42.272;22.658;2023-12-20T14:50:20;41.20;;;13.93;;